sensor_id;sensor_type;location;lat;lon;timestamp;temperature;humidity
72114;SHT31;59989;46.220;19.888;2024-01-11T00:01:12;-6.48;93.88
72114;SHT31;59989;46.220;19.888;2024-01-11T00:04:14;-6.12;93.44
72114;SHT31;59989;46.220;19.888;2024-01-11T00:07:17;-6.06;93.52
72114;SHT31;59989;46.220;19.888;2024-01-11T00:10:20;-6.24;93.26
72114;SHT31;59989;46.220;19.888;2024-01-11T00:13:22;-6.48;92.80
72114;SHT31;59989;46.220;19.888;2024-01-11T00:16:25;-6.77;92.21
72114;SHT31;59989;46.220;19.888;2024-01-11T00:19:28;-6.51;94.16
72114;SHT31;59989;46.220;19.888;2024-01-11T00:22:31;-6.44;94.22
72114;SHT31;59989;46.220;19.888;2024-01-11T00:25:34;-6.50;94.20
72114;SHT31;59989;46.220;19.888;2024-01-11T00:28:37;-6.38;93.95
72114;SHT31;59989;46.220;19.888;2024-01-11T00:31:39;-6.50;94.02
72114;SHT31;59989;46.220;19.888;2024-01-11T00:34:42;-6.68;93.37
72114;SHT31;59989;46.220;19.888;2024-01-11T00:37:45;-6.85;93.02
72114;SHT31;59989;46.220;19.888;2024-01-11T00:40:48;-6.98;93.16
72114;SHT31;59989;46.220;19.888;2024-01-11T00:43:51;-7.06;93.38
72114;SHT31;59989;46.220;19.888;2024-01-11T00:46:53;-7.09;93.64
72114;SHT31;59989;46.220;19.888;2024-01-11T00:49:57;-7.12;93.65
72114;SHT31;59989;46.220;19.888;2024-01-11T00:53:00;-7.18;93.87
72114;SHT31;59989;46.220;19.888;2024-01-11T00:56:03;-7.27;93.73
72114;SHT31;59989;46.220;19.888;2024-01-11T00:59:06;-7.39;93.67
72114;SHT31;59989;46.220;19.888;2024-01-11T01:02:08;-7.48;93.61
72114;SHT31;59989;46.220;19.888;2024-01-11T01:05:11;-7.47;94.00
72114;SHT31;59989;46.220;19.888;2024-01-11T01:08:14;-7.03;95.71
72114;SHT31;59989;46.220;19.888;2024-01-11T01:11:17;-6.75;95.11
72114;SHT31;59989;46.220;19.888;2024-01-11T01:14:19;-6.77;95.02
72114;SHT31;59989;46.220;19.888;2024-01-11T01:17:22;-6.92;94.81
72114;SHT31;59989;46.220;19.888;2024-01-11T01:20:24;-7.08;94.44
72114;SHT31;59989;46.220;19.888;2024-01-11T01:23:27;-7.11;94.64
72114;SHT31;59989;46.220;19.888;2024-01-11T01:26:30;-7.24;94.30
72114;SHT31;59989;46.220;19.888;2024-01-11T01:29:32;-7.20;95.15
72114;SHT31;59989;46.220;19.888;2024-01-11T01:32:35;-6.95;95.35
72114;SHT31;59989;46.220;19.888;2024-01-11T01:35:37;-6.87;95.37
72114;SHT31;59989;46.220;19.888;2024-01-11T01:38:40;-6.78;94.88
72114;SHT31;59989;46.220;19.888;2024-01-11T01:41:43;-6.64;94.44
72114;SHT31;59989;46.220;19.888;2024-01-11T01:44:45;-6.57;94.02
72114;SHT31;59989;46.220;19.888;2024-01-11T01:47:48;-6.54;93.89
72114;SHT31;59989;46.220;19.888;2024-01-11T01:50:51;-6.54;93.76
72114;SHT31;59989;46.220;19.888;2024-01-11T01:53:54;-6.54;93.72
72114;SHT31;59989;46.220;19.888;2024-01-11T01:56:57;-6.58;93.79
72114;SHT31;59989;46.220;19.888;2024-01-11T02:00:00;-6.65;93.89
72114;SHT31;59989;46.220;19.888;2024-01-11T02:03:03;-6.68;93.90
72114;SHT31;59989;46.220;19.888;2024-01-11T02:06:06;-6.75;94.29
72114;SHT31;59989;46.220;19.888;2024-01-11T02:09:10;-6.93;94.11
72114;SHT31;59989;46.220;19.888;2024-01-11T02:12:13;-7.06;93.87
72114;SHT31;59989;46.220;19.888;2024-01-11T02:15:17;-7.22;93.66
72114;SHT31;59989;46.220;19.888;2024-01-11T02:18:19;-7.32;93.66
72114;SHT31;59989;46.220;19.888;2024-01-11T02:21:22;-7.43;93.51
72114;SHT31;59989;46.220;19.888;2024-01-11T02:24:26;-7.57;93.66
72114;SHT31;59989;46.220;19.888;2024-01-11T02:27:28;-7.70;93.64
72114;SHT31;59989;46.220;19.888;2024-01-11T02:30:31;-7.71;93.97
72114;SHT31;59989;46.220;19.888;2024-01-11T02:33:34;-7.78;94.18
72114;SHT31;59989;46.220;19.888;2024-01-11T02:36:36;-7.87;94.22
72114;SHT31;59989;46.220;19.888;2024-01-11T02:39:39;-7.80;94.48
72114;SHT31;59989;46.220;19.888;2024-01-11T02:42:41;-7.85;94.69
72114;SHT31;59989;46.220;19.888;2024-01-11T02:45:44;-7.94;94.62
72114;SHT31;59989;46.220;19.888;2024-01-11T02:48:46;-8.02;94.41
72114;SHT31;59989;46.220;19.888;2024-01-11T02:51:49;-8.08;94.88
72114;SHT31;59989;46.220;19.888;2024-01-11T02:54:51;-8.16;94.87
72114;SHT31;59989;46.220;19.888;2024-01-11T02:57:54;-8.18;95.03
72114;SHT31;59989;46.220;19.888;2024-01-11T03:00:56;-8.23;94.29
72114;SHT31;59989;46.220;19.888;2024-01-11T03:03:59;-8.13;94.87
72114;SHT31;59989;46.220;19.888;2024-01-11T03:07:02;-8.15;94.38
72114;SHT31;59989;46.220;19.888;2024-01-11T03:10:05;-8.23;94.60
72114;SHT31;59989;46.220;19.888;2024-01-11T03:13:07;-8.28;94.83
72114;SHT31;59989;46.220;19.888;2024-01-11T03:16:10;-8.13;95.45
72114;SHT31;59989;46.220;19.888;2024-01-11T03:19:12;-8.11;95.11
72114;SHT31;59989;46.220;19.888;2024-01-11T03:22:15;-8.05;94.99
72114;SHT31;59989;46.220;19.888;2024-01-11T03:25:17;-8.19;95.24
72114;SHT31;59989;46.220;19.888;2024-01-11T03:28:20;-8.25;95.46
72114;SHT31;59989;46.220;19.888;2024-01-11T03:31:22;-8.28;95.08
72114;SHT31;59989;46.220;19.888;2024-01-11T03:34:25;-8.34;95.18
72114;SHT31;59989;46.220;19.888;2024-01-11T03:37:28;-8.40;95.17
72114;SHT31;59989;46.220;19.888;2024-01-11T03:40:30;-8.34;95.41
72114;SHT31;59989;46.220;19.888;2024-01-11T03:43:32;-8.41;95.37
72114;SHT31;59989;46.220;19.888;2024-01-11T03:46:35;-8.39;95.42
72114;SHT31;59989;46.220;19.888;2024-01-11T03:49:37;-8.51;94.84
72114;SHT31;59989;46.220;19.888;2024-01-11T03:52:40;-8.49;95.36
72114;SHT31;59989;46.220;19.888;2024-01-11T03:55:42;-8.51;95.40
72114;SHT31;59989;46.220;19.888;2024-01-11T03:58:45;-8.53;95.71
72114;SHT31;59989;46.220;19.888;2024-01-11T04:01:47;-8.47;96.33
72114;SHT31;59989;46.220;19.888;2024-01-11T04:04:50;-8.57;95.49
72114;SHT31;59989;46.220;19.888;2024-01-11T04:07:53;-8.53;95.21
72114;SHT31;59989;46.220;19.888;2024-01-11T04:10:55;-8.53;95.47
72114;SHT31;59989;46.220;19.888;2024-01-11T04:13:58;-8.57;95.37
72114;SHT31;59989;46.220;19.888;2024-01-11T04:17:01;-8.65;95.34
72114;SHT31;59989;46.220;19.888;2024-01-11T04:20:04;-8.65;95.67
72114;SHT31;59989;46.220;19.888;2024-01-11T04:23:06;-8.67;95.74
72114;SHT31;59989;46.220;19.888;2024-01-11T04:26:09;-8.68;95.69
72114;SHT31;59989;46.220;19.888;2024-01-11T04:29:11;-8.65;96.04
72114;SHT31;59989;46.220;19.888;2024-01-11T04:32:14;-8.67;95.93
72114;SHT31;59989;46.220;19.888;2024-01-11T04:35:16;-8.58;95.46
72114;SHT31;59989;46.220;19.888;2024-01-11T04:38:19;-8.67;95.84
72114;SHT31;59989;46.220;19.888;2024-01-11T04:41:21;-8.70;95.83
72114;SHT31;59989;46.220;19.888;2024-01-11T04:44:24;-8.76;95.31
72114;SHT31;59989;46.220;19.888;2024-01-11T04:47:29;-8.72;95.61
72114;SHT31;59989;46.220;19.888;2024-01-11T04:50:31;-8.76;96.02
72114;SHT31;59989;46.220;19.888;2024-01-11T04:53:40;-8.76;95.69
72114;SHT31;59989;46.220;19.888;2024-01-11T04:56:43;-8.81;95.89
72114;SHT31;59989;46.220;19.888;2024-01-11T04:59:46;-8.71;96.32
72114;SHT31;59989;46.220;19.888;2024-01-11T05:02:49;-8.72;95.93
72114;SHT31;59989;46.220;19.888;2024-01-11T05:05:51;-8.77;96.22
72114;SHT31;59989;46.220;19.888;2024-01-11T05:08:54;-8.70;96.38
72114;SHT31;59989;46.220;19.888;2024-01-11T05:11:57;-8.57;96.85
72114;SHT31;59989;46.220;19.888;2024-01-11T05:15:00;-8.58;96.89
72114;SHT31;59989;46.220;19.888;2024-01-11T05:18:03;-8.49;96.90
72114;SHT31;59989;46.220;19.888;2024-01-11T05:21:05;-8.54;96.62
72114;SHT31;59989;46.220;19.888;2024-01-11T05:24:08;-8.46;96.90
72114;SHT31;59989;46.220;19.888;2024-01-11T05:27:13;-8.51;96.88
72114;SHT31;59989;46.220;19.888;2024-01-11T05:30:15;-8.53;96.59
72114;SHT31;59989;46.220;19.888;2024-01-11T05:33:18;-8.68;96.39
72114;SHT31;59989;46.220;19.888;2024-01-11T05:36:21;-8.78;96.38
72114;SHT31;59989;46.220;19.888;2024-01-11T05:39:23;-8.88;96.24
72114;SHT31;59989;46.220;19.888;2024-01-11T05:42:26;-8.89;96.62
72114;SHT31;59989;46.220;19.888;2024-01-11T05:45:29;-8.92;96.59
72114;SHT31;59989;46.220;19.888;2024-01-11T05:48:48;-8.85;96.85
72114;SHT31;59989;46.220;19.888;2024-01-11T05:51:51;-8.88;96.69
72114;SHT31;59989;46.220;19.888;2024-01-11T05:54:53;-8.89;96.56
72114;SHT31;59989;46.220;19.888;2024-01-11T05:57:56;-8.87;97.13
72114;SHT31;59989;46.220;19.888;2024-01-11T06:00:59;-8.78;97.10
72114;SHT31;59989;46.220;19.888;2024-01-11T06:04:02;-8.71;97.11
72114;SHT31;59989;46.220;19.888;2024-01-11T06:07:04;-8.70;97.16
72114;SHT31;59989;46.220;19.888;2024-01-11T06:10:07;-8.70;97.34
72114;SHT31;59989;46.220;19.888;2024-01-11T06:13:11;-8.71;96.78
72114;SHT31;59989;46.220;19.888;2024-01-11T06:16:14;-8.70;96.64
72114;SHT31;59989;46.220;19.888;2024-01-11T06:19:16;-8.70;96.75
72114;SHT31;59989;46.220;19.888;2024-01-11T06:22:19;-8.77;96.73
72114;SHT31;59989;46.220;19.888;2024-01-11T06:25:21;-8.80;96.37
72114;SHT31;59989;46.220;19.888;2024-01-11T06:28:24;-8.74;96.45
72114;SHT31;59989;46.220;19.888;2024-01-11T06:31:27;-8.81;96.89
72114;SHT31;59989;46.220;19.888;2024-01-11T06:34:29;-8.67;97.35
72114;SHT31;59989;46.220;19.888;2024-01-11T06:37:33;-8.54;97.71
72114;SHT31;59989;46.220;19.888;2024-01-11T06:40:36;-8.54;96.87
72114;SHT31;59989;46.220;19.888;2024-01-11T06:43:39;-8.46;97.37
72114;SHT31;59989;46.220;19.888;2024-01-11T06:46:50;-8.47;97.02
72114;SHT31;59989;46.220;19.888;2024-01-11T06:49:55;-8.41;96.93
72114;SHT31;59989;46.220;19.888;2024-01-11T06:52:59;-8.41;96.44
72114;SHT31;59989;46.220;19.888;2024-01-11T06:56:02;-8.44;96.16
72114;SHT31;59989;46.220;19.888;2024-01-11T06:59:08;-8.43;95.89
72114;SHT31;59989;46.220;19.888;2024-01-11T07:02:12;-8.40;95.55
72114;SHT31;59989;46.220;19.888;2024-01-11T07:05:16;-8.36;95.86
72114;SHT31;59989;46.220;19.888;2024-01-11T07:08:20;-8.28;95.94
72114;SHT31;59989;46.220;19.888;2024-01-11T07:11:23;-8.22;95.57
72114;SHT31;59989;46.220;19.888;2024-01-11T07:14:26;-8.02;95.78
72114;SHT31;59989;46.220;19.888;2024-01-11T07:17:29;-7.97;95.12
72114;SHT31;59989;46.220;19.888;2024-01-11T07:20:32;-8.01;94.62
72114;SHT31;59989;46.220;19.888;2024-01-11T07:23:34;-8.05;94.44
72114;SHT31;59989;46.220;19.888;2024-01-11T07:26:39;-7.94;94.44
72114;SHT31;59989;46.220;19.888;2024-01-11T07:29:42;-7.84;94.45
72114;SHT31;59989;46.220;19.888;2024-01-11T07:32:45;-7.71;94.43
72114;SHT31;59989;46.220;19.888;2024-01-11T07:35:50;-7.71;94.19
72114;SHT31;59989;46.220;19.888;2024-01-11T07:38:53;-7.51;95.06
72114;SHT31;59989;46.220;19.888;2024-01-11T07:41:56;-7.41;94.37
72114;SHT31;59989;46.220;19.888;2024-01-11T07:45:01;-7.32;94.27
72114;SHT31;59989;46.220;19.888;2024-01-11T07:48:05;-6.62;95.80
72114;SHT31;59989;46.220;19.888;2024-01-11T07:51:09;-6.36;94.05
72114;SHT31;59989;46.220;19.888;2024-01-11T07:54:13;-6.30;93.90
72114;SHT31;59989;46.220;19.888;2024-01-11T07:57:16;-6.26;92.75
72114;SHT31;59989;46.220;19.888;2024-01-11T08:00:20;-6.07;93.16
72114;SHT31;59989;46.220;19.888;2024-01-11T08:03:25;-6.03;90.96
72114;SHT31;59989;46.220;19.888;2024-01-11T08:06:27;-5.89;91.24
72114;SHT31;59989;46.220;19.888;2024-01-11T08:09:30;-5.68;91.42
72114;SHT31;59989;46.220;19.888;2024-01-11T08:12:34;-5.44;91.34
72114;SHT31;59989;46.220;19.888;2024-01-11T08:15:37;-5.00;91.31
72114;SHT31;59989;46.220;19.888;2024-01-11T08:18:40;-4.79;90.59
72114;SHT31;59989;46.220;19.888;2024-01-11T08:21:42;-4.51;90.08
72114;SHT31;59989;46.220;19.888;2024-01-11T08:24:45;-4.26;89.21
72114;SHT31;59989;46.220;19.888;2024-01-11T08:27:51;-4.00;88.96
72114;SHT31;59989;46.220;19.888;2024-01-11T08:30:54;-3.72;88.44
72114;SHT31;59989;46.220;19.888;2024-01-11T08:34:00;-3.51;87.55
72114;SHT31;59989;46.220;19.888;2024-01-11T08:37:04;-3.27;86.70
72114;SHT31;59989;46.220;19.888;2024-01-11T08:40:07;-3.06;86.41
72114;SHT31;59989;46.220;19.888;2024-01-11T08:43:13;-2.85;85.40
72114;SHT31;59989;46.220;19.888;2024-01-11T08:46:24;-2.66;85.27
72114;SHT31;59989;46.220;19.888;2024-01-11T08:49:30;-2.42;84.29
72114;SHT31;59989;46.220;19.888;2024-01-11T08:52:34;-2.49;83.38
72114;SHT31;59989;46.220;19.888;2024-01-11T08:55:37;-2.15;83.32
72114;SHT31;59989;46.220;19.888;2024-01-11T08:58:41;-2.06;83.54
72114;SHT31;59989;46.220;19.888;2024-01-11T09:01:44;-1.96;83.59
72114;SHT31;59989;46.220;19.888;2024-01-11T09:04:58;-1.69;83.08
72114;SHT31;59989;46.220;19.888;2024-01-11T09:08:03;-1.59;82.29
72114;SHT31;59989;46.220;19.888;2024-01-11T09:11:09;-1.35;82.23
72114;SHT31;59989;46.220;19.888;2024-01-11T09:14:14;-1.32;81.68
72114;SHT31;59989;46.220;19.888;2024-01-11T09:17:17;-1.14;81.50
72114;SHT31;59989;46.220;19.888;2024-01-11T09:20:20;-0.91;82.21
72114;SHT31;59989;46.220;19.888;2024-01-11T09:23:22;-0.94;81.05
72114;SHT31;59989;46.220;19.888;2024-01-11T09:26:25;-0.62;80.33
72114;SHT31;59989;46.220;19.888;2024-01-11T09:29:28;-0.52;80.79
72114;SHT31;59989;46.220;19.888;2024-01-11T09:32:30;-0.69;80.07
72114;SHT31;59989;46.220;19.888;2024-01-11T09:35:34;-0.29;79.50
72114;SHT31;59989;46.220;19.888;2024-01-11T09:38:36;0.13;79.20
72114;SHT31;59989;46.220;19.888;2024-01-11T09:41:42;0.06;78.32
72114;SHT31;59989;46.220;19.888;2024-01-11T09:44:46;0.41;76.87
72114;SHT31;59989;46.220;19.888;2024-01-11T09:47:49;0.31;77.47
72114;SHT31;59989;46.220;19.888;2024-01-11T09:50:54;0.60;77.70
72114;SHT31;59989;46.220;19.888;2024-01-11T09:53:59;0.74;77.30
72114;SHT31;59989;46.220;19.888;2024-01-11T09:57:03;0.74;76.87
72114;SHT31;59989;46.220;19.888;2024-01-11T10:00:07;0.95;77.12
72114;SHT31;59989;46.220;19.888;2024-01-11T10:03:11;1.10;75.70
72114;SHT31;59989;46.220;19.888;2024-01-11T10:06:15;1.17;75.17
72114;SHT31;59989;46.220;19.888;2024-01-11T10:09:19;1.32;75.90
72114;SHT31;59989;46.220;19.888;2024-01-11T10:12:22;1.30;74.59
72114;SHT31;59989;46.220;19.888;2024-01-11T10:15:28;1.20;74.92
72114;SHT31;59989;46.220;19.888;2024-01-11T10:18:30;1.40;74.03
72114;SHT31;59989;46.220;19.888;2024-01-11T10:21:37;1.58;73.66
72114;SHT31;59989;46.220;19.888;2024-01-11T10:24:41;1.61;74.56
72114;SHT31;59989;46.220;19.888;2024-01-11T10:27:44;1.40;74.86
72114;SHT31;59989;46.220;19.888;2024-01-11T10:30:51;1.64;74.74
72114;SHT31;59989;46.220;19.888;2024-01-11T10:33:55;1.65;74.28
72114;SHT31;59989;46.220;19.888;2024-01-11T10:36:59;2.47;72.92
72114;SHT31;59989;46.220;19.888;2024-01-11T10:40:06;2.30;70.70
72114;SHT31;59989;46.220;19.888;2024-01-11T10:43:19;2.18;71.72
72114;SHT31;59989;46.220;19.888;2024-01-11T10:46:25;2.43;70.83
72114;SHT31;59989;46.220;19.888;2024-01-11T10:49:30;1.95;67.70
72114;SHT31;59989;46.220;19.888;2024-01-11T10:52:36;2.02;67.97
72114;SHT31;59989;46.220;19.888;2024-01-11T10:55:45;1.88;67.64
72114;SHT31;59989;46.220;19.888;2024-01-11T10:58:50;2.01;68.91
72114;SHT31;59989;46.220;19.888;2024-01-11T11:01:53;2.18;69.60
72114;SHT31;59989;46.220;19.888;2024-01-11T11:04:58;2.68;68.47
72114;SHT31;59989;46.220;19.888;2024-01-11T11:08:02;3.20;66.79
72114;SHT31;59989;46.220;19.888;2024-01-11T11:11:05;3.02;66.92
72114;SHT31;59989;46.220;19.888;2024-01-11T11:14:09;2.78;64.79
72114;SHT31;59989;46.220;19.888;2024-01-11T11:17:15;3.13;67.09
72114;SHT31;59989;46.220;19.888;2024-01-11T11:20:18;3.84;64.19
72114;SHT31;59989;46.220;19.888;2024-01-11T11:23:20;4.36;62.46
72114;SHT31;59989;46.220;19.888;2024-01-11T11:26:25;4.42;60.16
72114;SHT31;59989;46.220;19.888;2024-01-11T11:29:28;5.39;58.39
72114;SHT31;59989;46.220;19.888;2024-01-11T11:32:37;5.46;56.62
72114;SHT31;59989;46.220;19.888;2024-01-11T11:35:41;5.51;57.12
72114;SHT31;59989;46.220;19.888;2024-01-11T11:38:45;5.11;57.09
72114;SHT31;59989;46.220;19.888;2024-01-11T11:41:47;5.24;55.27
72114;SHT31;59989;46.220;19.888;2024-01-11T11:44:52;4.73;57.43
72114;SHT31;59989;46.220;19.888;2024-01-11T11:47:55;5.36;56.55
72114;SHT31;59989;46.220;19.888;2024-01-11T11:51:17;5.39;56.27
72114;SHT31;59989;46.220;19.888;2024-01-11T11:54:22;4.90;57.73
72114;SHT31;59989;46.220;19.888;2024-01-11T11:57:33;4.12;59.15
72114;SHT31;59989;46.220;19.888;2024-01-11T12:00:36;3.99;60.74
72114;SHT31;59989;46.220;19.888;2024-01-11T12:03:41;4.07;59.22
72114;SHT31;59989;46.220;19.888;2024-01-11T12:06:43;4.22;58.12
72114;SHT31;59989;46.220;19.888;2024-01-11T12:09:49;4.79;57.10
72114;SHT31;59989;46.220;19.888;2024-01-11T12:12:53;5.24;54.96
72114;SHT31;59989;46.220;19.888;2024-01-11T12:15:57;5.23;56.70
72114;SHT31;59989;46.220;19.888;2024-01-11T12:18:59;4.80;57.42
72114;SHT31;59989;46.220;19.888;2024-01-11T12:22:02;4.72;57.84
72114;SHT31;59989;46.220;19.888;2024-01-11T12:25:04;4.63;59.12
72114;SHT31;59989;46.220;19.888;2024-01-11T12:28:08;4.74;57.13
72114;SHT31;59989;46.220;19.888;2024-01-11T12:31:11;4.76;57.56
72114;SHT31;59989;46.220;19.888;2024-01-11T12:34:15;4.52;59.47
72114;SHT31;59989;46.220;19.888;2024-01-11T12:37:18;4.24;60.14
72114;SHT31;59989;46.220;19.888;2024-01-11T12:40:21;4.45;59.20
72114;SHT31;59989;46.220;19.888;2024-01-11T12:43:24;4.25;59.21
72114;SHT31;59989;46.220;19.888;2024-01-11T12:46:27;4.59;58.65
72114;SHT31;59989;46.220;19.888;2024-01-11T12:49:29;4.66;58.47
72114;SHT31;59989;46.220;19.888;2024-01-11T12:52:32;4.86;57.39
72114;SHT31;59989;46.220;19.888;2024-01-11T12:55:35;5.24;57.50
72114;SHT31;59989;46.220;19.888;2024-01-11T12:59:05;5.56;55.56
72114;SHT31;59989;46.220;19.888;2024-01-11T13:02:08;5.49;55.14
72114;SHT31;59989;46.220;19.888;2024-01-11T13:05:11;5.67;54.94
72114;SHT31;59989;46.220;19.888;2024-01-11T13:08:15;6.28;53.56
72114;SHT31;59989;46.220;19.888;2024-01-11T13:11:24;5.89;55.31
72114;SHT31;59989;46.220;19.888;2024-01-11T13:14:30;5.21;55.48
72114;SHT31;59989;46.220;19.888;2024-01-11T13:17:33;4.90;57.58
72114;SHT31;59989;46.220;19.888;2024-01-11T13:20:37;5.55;56.75
72114;SHT31;59989;46.220;19.888;2024-01-11T13:23:40;5.74;55.79
72114;SHT31;59989;46.220;19.888;2024-01-11T13:26:44;6.24;54.26
72114;SHT31;59989;46.220;19.888;2024-01-11T13:29:48;6.78;52.67
72114;SHT31;59989;46.220;19.888;2024-01-11T13:32:50;6.42;53.08
72114;SHT31;59989;46.220;19.888;2024-01-11T13:35:54;6.46;53.39
72114;SHT31;59989;46.220;19.888;2024-01-11T13:38:56;6.51;53.82
72114;SHT31;59989;46.220;19.888;2024-01-11T13:41:59;5.70;55.46
72114;SHT31;59989;46.220;19.888;2024-01-11T13:45:01;4.38;58.48
72114;SHT31;59989;46.220;19.888;2024-01-11T13:48:05;3.55;61.86
72114;SHT31;59989;46.220;19.888;2024-01-11T13:51:08;3.04;63.43
72114;SHT31;59989;46.220;19.888;2024-01-11T13:54:15;2.67;63.69
72114;SHT31;59989;46.220;19.888;2024-01-11T13:57:17;2.71;64.88
72114;SHT31;59989;46.220;19.888;2024-01-11T14:00:20;2.98;62.98
72114;SHT31;59989;46.220;19.888;2024-01-11T14:03:23;3.23;62.89
72114;SHT31;59989;46.220;19.888;2024-01-11T14:06:26;3.26;62.40
72114;SHT31;59989;46.220;19.888;2024-01-11T14:09:29;2.74;63.63
72114;SHT31;59989;46.220;19.888;2024-01-11T14:12:32;2.08;66.19
72114;SHT31;59989;46.220;19.888;2024-01-11T14:15:35;1.65;67.31
72114;SHT31;59989;46.220;19.888;2024-01-11T14:18:39;1.33;68.83
72114;SHT31;59989;46.220;19.888;2024-01-11T14:21:43;1.15;69.64
72114;SHT31;59989;46.220;19.888;2024-01-11T14:24:45;1.02;69.39
72114;SHT31;59989;46.220;19.888;2024-01-11T14:27:48;0.86;70.71
72114;SHT31;59989;46.220;19.888;2024-01-11T14:30:51;0.75;71.31
72114;SHT31;59989;46.220;19.888;2024-01-11T14:33:54;0.69;71.85
72114;SHT31;59989;46.220;19.888;2024-01-11T14:36:57;0.66;71.18
72114;SHT31;59989;46.220;19.888;2024-01-11T14:40:00;0.53;72.55
72114;SHT31;59989;46.220;19.888;2024-01-11T14:43:03;0.43;72.39
72114;SHT31;59989;46.220;19.888;2024-01-11T14:46:06;0.34;73.05
72114;SHT31;59989;46.220;19.888;2024-01-11T14:49:12;0.26;73.79
72114;SHT31;59989;46.220;19.888;2024-01-11T14:52:15;0.17;74.10
72114;SHT31;59989;46.220;19.888;2024-01-11T14:55:19;0.10;74.06
72114;SHT31;59989;46.220;19.888;2024-01-11T14:58:22;0.02;75.04
72114;SHT31;59989;46.220;19.888;2024-01-11T15:01:25;-0.07;74.95
72114;SHT31;59989;46.220;19.888;2024-01-11T15:04:27;-0.14;74.49
72114;SHT31;59989;46.220;19.888;2024-01-11T15:07:30;-0.21;75.16
72114;SHT31;59989;46.220;19.888;2024-01-11T15:10:33;-0.26;75.47
72114;SHT31;59989;46.220;19.888;2024-01-11T15:13:35;-0.41;76.13
72114;SHT31;59989;46.220;19.888;2024-01-11T15:16:38;-0.49;76.47
72114;SHT31;59989;46.220;19.888;2024-01-11T15:19:41;-0.48;75.92
72114;SHT31;59989;46.220;19.888;2024-01-11T15:22:45;-0.59;76.85
72114;SHT31;59989;46.220;19.888;2024-01-11T15:25:48;-0.70;77.39
72114;SHT31;59989;46.220;19.888;2024-01-11T15:28:50;-0.82;77.69
72114;SHT31;59989;46.220;19.888;2024-01-11T15:31:53;-0.84;78.12
72114;SHT31;59989;46.220;19.888;2024-01-11T15:34:56;-0.97;78.86
72114;SHT31;59989;46.220;19.888;2024-01-11T15:37:58;-1.03;78.60
72114;SHT31;59989;46.220;19.888;2024-01-11T15:41:01;-1.05;79.47
72114;SHT31;59989;46.220;19.888;2024-01-11T15:44:03;-1.05;79.04
72114;SHT31;59989;46.220;19.888;2024-01-11T15:47:06;-1.07;80.06
72114;SHT31;59989;46.220;19.888;2024-01-11T15:50:08;-1.04;79.90
72114;SHT31;59989;46.220;19.888;2024-01-11T15:53:13;-1.07;80.06
72114;SHT31;59989;46.220;19.888;2024-01-11T15:56:15;-1.11;80.31
72114;SHT31;59989;46.220;19.888;2024-01-11T15:59:18;-1.21;79.85
72114;SHT31;59989;46.220;19.888;2024-01-11T16:02:20;-1.25;79.47
72114;SHT31;59989;46.220;19.888;2024-01-11T16:05:24;-1.28;79.82
72114;SHT31;59989;46.220;19.888;2024-01-11T16:08:27;-1.37;79.96
72114;SHT31;59989;46.220;19.888;2024-01-11T16:11:30;-1.40;80.29
72114;SHT31;59989;46.220;19.888;2024-01-11T16:14:32;-1.47;80.85
72114;SHT31;59989;46.220;19.888;2024-01-11T16:17:35;-1.44;80.98
72114;SHT31;59989;46.220;19.888;2024-01-11T16:20:38;-1.47;81.52
72114;SHT31;59989;46.220;19.888;2024-01-11T16:23:41;-1.48;82.23
72114;SHT31;59989;46.220;19.888;2024-01-11T16:26:43;-1.47;82.30
72114;SHT31;59989;46.220;19.888;2024-01-11T16:29:46;-1.48;82.74
72114;SHT31;59989;46.220;19.888;2024-01-11T16:32:49;-1.49;83.40
72114;SHT31;59989;46.220;19.888;2024-01-11T16:35:51;-1.52;83.55
72114;SHT31;59989;46.220;19.888;2024-01-11T16:39:00;-1.48;83.55
72114;SHT31;59989;46.220;19.888;2024-01-11T16:42:05;-1.51;84.05
72114;SHT31;59989;46.220;19.888;2024-01-11T16:45:08;-1.51;83.97
72114;SHT31;59989;46.220;19.888;2024-01-11T16:48:12;-1.51;84.59
72114;SHT31;59989;46.220;19.888;2024-01-11T16:51:19;-1.55;84.48
72114;SHT31;59989;46.220;19.888;2024-01-11T16:54:21;-1.55;84.55
72114;SHT31;59989;46.220;19.888;2024-01-11T16:57:24;-1.56;85.05
72114;SHT31;59989;46.220;19.888;2024-01-11T17:00:26;-1.59;85.02
72114;SHT31;59989;46.220;19.888;2024-01-11T17:03:29;-1.62;84.84
72114;SHT31;59989;46.220;19.888;2024-01-11T17:06:34;-1.62;85.15
72114;SHT31;59989;46.220;19.888;2024-01-11T17:09:37;-1.63;85.18
72114;SHT31;59989;46.220;19.888;2024-01-11T17:12:40;-1.59;84.69
72114;SHT31;59989;46.220;19.888;2024-01-11T17:15:42;-1.63;85.12
72114;SHT31;59989;46.220;19.888;2024-01-11T17:18:45;-1.61;84.93
72114;SHT31;59989;46.220;19.888;2024-01-11T17:21:48;-1.59;84.93
72114;SHT31;59989;46.220;19.888;2024-01-11T17:24:51;-1.62;84.77
72114;SHT31;59989;46.220;19.888;2024-01-11T17:27:54;-1.62;84.75
72114;SHT31;59989;46.220;19.888;2024-01-11T17:30:57;-1.62;84.47
72114;SHT31;59989;46.220;19.888;2024-01-11T17:33:59;-1.56;84.80
72114;SHT31;59989;46.220;19.888;2024-01-11T17:37:02;-1.65;84.68
72114;SHT31;59989;46.220;19.888;2024-01-11T17:40:06;-1.65;84.38
72114;SHT31;59989;46.220;19.888;2024-01-11T17:43:08;-1.66;83.98
72114;SHT31;59989;46.220;19.888;2024-01-11T17:46:11;-1.68;84.78
72114;SHT31;59989;46.220;19.888;2024-01-11T17:49:13;-1.66;84.00
72114;SHT31;59989;46.220;19.888;2024-01-11T17:52:16;-1.66;84.16
72114;SHT31;59989;46.220;19.888;2024-01-11T17:55:18;-1.65;83.86
72114;SHT31;59989;46.220;19.888;2024-01-11T17:58:21;-1.68;83.88
72114;SHT31;59989;46.220;19.888;2024-01-11T18:01:26;-1.69;83.72
72114;SHT31;59989;46.220;19.888;2024-01-11T18:04:29;-1.69;84.52
72114;SHT31;59989;46.220;19.888;2024-01-11T18:07:31;-1.75;84.66
72114;SHT31;59989;46.220;19.888;2024-01-11T18:10:35;-1.75;84.71
72114;SHT31;59989;46.220;19.888;2024-01-11T18:13:39;-1.80;84.90
72114;SHT31;59989;46.220;19.888;2024-01-11T18:16:42;-1.85;84.62
72114;SHT31;59989;46.220;19.888;2024-01-11T18:19:45;-1.90;85.43
72114;SHT31;59989;46.220;19.888;2024-01-11T18:22:47;-1.93;85.07
72114;SHT31;59989;46.220;19.888;2024-01-11T18:25:50;-2.01;85.55
72114;SHT31;59989;46.220;19.888;2024-01-11T18:28:54;-2.04;85.46
72114;SHT31;59989;46.220;19.888;2024-01-11T18:31:57;-2.01;85.80
72114;SHT31;59989;46.220;19.888;2024-01-11T18:35:00;-2.04;85.81
72114;SHT31;59989;46.220;19.888;2024-01-11T18:38:02;-2.10;86.03
72114;SHT31;59989;46.220;19.888;2024-01-11T18:41:06;-2.14;86.09
72114;SHT31;59989;46.220;19.888;2024-01-11T18:44:09;-2.11;86.01
72114;SHT31;59989;46.220;19.888;2024-01-11T18:47:12;-2.13;86.68
72114;SHT31;59989;46.220;19.888;2024-01-11T18:50:15;-2.13;86.53
72114;SHT31;59989;46.220;19.888;2024-01-11T18:53:18;-2.07;86.36
72114;SHT31;59989;46.220;19.888;2024-01-11T18:56:20;-2.06;86.72
72114;SHT31;59989;46.220;19.888;2024-01-11T18:59:23;-2.04;85.94
72114;SHT31;59989;46.220;19.888;2024-01-11T19:02:27;-2.04;86.29
72114;SHT31;59989;46.220;19.888;2024-01-11T19:05:30;-2.07;86.52